createdAt,value
2023-02-18T00:00:19.475Z,9.63
2023-02-18T00:05:22.124Z,9.42
2023-02-18T00:10:24.509Z,9.46
2023-02-18T00:15:26.624Z,9.06
2023-02-18T00:20:28.711Z,8.99
2023-02-18T00:25:30.887Z,8.92
2023-02-18T00:30:33.097Z,8.96
2023-02-18T00:35:35.624Z,8.78
2023-02-18T00:40:42.285Z,8.65
2023-02-18T00:45:44.433Z,8.51
2023-02-18T00:50:47.173Z,8.65
2023-02-18T00:55:49.393Z,8.55
2023-02-18T01:00:52.153Z,8.83
2023-02-18T01:05:54.529Z,8.57
2023-02-18T01:10:59.465Z,8.54
2023-02-18T01:16:01.826Z,8.65
2023-02-18T01:21:05.652Z,8.50
2023-02-18T01:26:08.910Z,8.65
2023-02-18T01:31:13.719Z,8.47
2023-02-18T01:36:19.493Z,8.16
2023-02-18T01:41:21.939Z,8.28
2023-02-18T01:46:24.141Z,8.23
2023-02-18T01:51:28.804Z,7.66
2023-02-18T01:57:06.255Z,7.89
2023-02-18T02:02:13.413Z,7.87
2023-02-18T02:07:16.376Z,8.06
2023-02-18T02:12:25.608Z,8.13
2023-02-18T02:17:42.684Z,8.02
2023-02-18T02:22:56.236Z,8.13
2023-02-18T02:28:41.255Z,7.52
2023-02-18T02:33:52.289Z,7.72
2023-02-18T02:39:22.004Z,7.89
2023-02-18T02:44:39.043Z,8.13
2023-02-18T02:49:49.378Z,8.08
2023-02-18T02:54:52.365Z,8.06
2023-02-18T03:00:02.803Z,7.85
2023-02-18T03:05:23.194Z,7.76
2023-02-18T03:10:40.155Z,6.99
2023-02-18T03:15:54.178Z,6.79
2023-02-18T03:21:05.017Z,6.79
2023-02-18T03:26:10.047Z,6.82
2023-02-18T03:31:21.582Z,7.01
2023-02-18T03:36:25.036Z,7.03
2023-02-18T03:41:27.705Z,6.94
2023-02-18T03:46:30.950Z,6.95
2023-02-18T03:51:33.189Z,6.96
2023-02-18T03:56:37.217Z,7.04
2023-02-18T04:01:40.321Z,7.03
2023-02-18T04:06:42.473Z,7.05
2023-02-18T04:11:44.639Z,6.88
2023-02-18T04:16:46.756Z,6.66
2023-02-18T04:21:48.891Z,6.98
2023-02-18T04:26:51.070Z,7.08
2023-02-18T04:31:53.311Z,6.73
2023-02-18T04:36:56.531Z,6.37
2023-02-18T04:41:58.675Z,6.45
2023-02-18T04:47:00.779Z,5.87
2023-02-18T04:52:03.202Z,6.24
2023-02-18T04:57:05.463Z,6.71
2023-02-18T05:02:07.760Z,6.96
2023-02-18T05:07:09.912Z,6.66
2023-02-18T05:12:12.107Z,6.45
2023-02-18T05:17:14.296Z,6.35
2023-02-18T05:22:16.488Z,6.29
2023-02-18T05:27:18.663Z,6.29
2023-02-18T05:32:20.869Z,6.29
2023-02-18T05:37:23.046Z,6.29
2023-02-18T05:42:25.309Z,6.11
2023-02-18T05:47:27.552Z,6.25
2023-02-18T05:52:29.776Z,5.42
2023-02-18T05:57:32.901Z,6.21
2023-02-18T06:02:36.334Z,6.15
2023-02-18T06:07:39.001Z,6.29
2023-02-18T06:12:41.143Z,6.57
2023-02-18T06:17:43.289Z,6.66
2023-02-18T06:22:45.455Z,6.56
2023-02-18T06:27:47.572Z,6.18
2023-02-18T06:32:49.790Z,6.49
2023-02-18T06:37:52.458Z,6.16
2023-02-18T06:42:54.806Z,7.02
2023-02-18T06:47:57.450Z,7.23
2023-02-18T06:52:59.943Z,7.73
2023-02-18T06:58:02.075Z,8.08
2023-02-18T07:03:05.038Z,8.19
2023-02-18T07:08:07.232Z,8.73
2023-02-18T07:13:09.453Z,8.92
2023-02-18T07:18:11.857Z,8.65
2023-02-18T07:23:14.323Z,8.26
2023-02-18T07:28:17.084Z,9.17
2023-02-18T07:33:19.266Z,9.26
2023-02-18T07:38:22.399Z,9.38
2023-02-18T07:43:24.996Z,10.00
2023-02-18T07:48:27.600Z,10.50
2023-02-18T07:53:29.829Z,10.67
2023-02-18T07:58:35.260Z,10.96
2023-02-18T08:03:37.840Z,11.08
2023-02-18T08:08:39.951Z,11.23
2023-02-18T08:13:42.126Z,11.40
2023-02-18T08:18:44.614Z,11.38
2023-02-18T08:23:47.722Z,11.67
2023-02-18T08:28:50.019Z,11.85
2023-02-18T08:33:53.709Z,12.14
2023-02-18T08:38:55.984Z,12.19
2023-02-18T08:43:58.243Z,11.85
2023-02-18T08:49:00.477Z,12.35
2023-02-18T08:54:03.301Z,12.26
2023-02-18T08:59:05.713Z,12.29
2023-02-18T09:04:07.819Z,12.52
2023-02-18T09:09:10.655Z,12.85
2023-02-18T09:14:13.324Z,12.91
2023-02-18T09:19:15.702Z,13.00
2023-02-18T09:24:17.987Z,13.15
2023-02-18T09:29:20.238Z,13.01
2023-02-18T09:34:22.426Z,13.26
2023-02-18T09:39:24.969Z,12.89
2023-02-18T09:44:34.729Z,13.21
2023-02-18T09:49:40.750Z,13.38
2023-02-18T09:54:43.135Z,14.08
2023-02-18T09:59:56.880Z,14.29
2023-02-18T10:04:59.410Z,14.55
2023-02-18T10:10:16.791Z,14.73
2023-02-18T10:15:25.512Z,14.78
2023-02-18T10:20:30.897Z,14.62
2023-02-18T10:25:44.683Z,14.86
2023-02-18T10:31:01.328Z,14.96
2023-02-18T10:36:10.926Z,14.87
2023-02-18T10:41:37.488Z,15.12
2023-02-18T10:47:09.528Z,15.40
2023-02-18T10:52:17.678Z,15.55
2023-02-18T10:57:24.453Z,15.67
2023-02-18T11:02:31.879Z,15.98
2023-02-18T11:07:36.083Z,15.98
2023-02-18T11:12:51.256Z,15.92
2023-02-18T11:17:56.277Z,16.19
2023-02-18T11:23:08.747Z,16.66
2023-02-18T11:28:14.873Z,16.88
2023-02-18T11:33:21.649Z,16.91
2023-02-18T11:38:35.231Z,16.90
2023-02-18T11:43:42.207Z,17.08
2023-02-18T11:48:45.077Z,17.31
2023-02-18T11:54:02.360Z,17.51
2023-02-18T11:59:05.016Z,17.67
2023-02-18T12:04:25.777Z,17.65
2023-02-18T12:09:33.828Z,17.80
2023-02-18T12:14:36.746Z,18.26
2023-02-18T12:19:50.607Z,18.30
2023-02-18T12:24:58.641Z,18.69
2023-02-18T12:30:28.808Z,18.95
2023-02-18T12:35:42.752Z,19.12
2023-02-18T12:40:52.611Z,19.18
2023-02-18T12:46:23.846Z,19.35
2023-02-18T12:51:49.673Z,19.43
2023-02-18T12:57:15.123Z,19.31
2023-02-18T13:02:59.631Z,19.73
2023-02-18T13:08:23.147Z,19.75
2023-02-18T13:13:30.388Z,20.10
2023-02-18T13:18:37.054Z,19.51
2023-02-18T13:23:58.809Z,20.05
2023-02-18T13:29:25.096Z,20.48
2023-02-18T13:34:43.307Z,20.71
2023-02-18T13:39:53.751Z,20.72
2023-02-18T13:44:56.076Z,20.99
2023-02-18T13:49:58.394Z,20.45
2023-02-18T13:55:00.582Z,20.31
2023-02-18T14:00:17.827Z,20.83
2023-02-18T14:05:25.416Z,20.61
2023-02-18T14:10:32.778Z,21.00
2023-02-18T14:15:34.986Z,21.43
2023-02-18T14:20:39.961Z,21.50
2023-02-18T14:25:42.835Z,21.65
2023-02-18T14:30:45.744Z,21.77
2023-02-18T14:36:18.211Z,21.90
2023-02-18T14:41:50.139Z,22.15
2023-02-18T14:46:58.657Z,22.34
2023-02-18T14:52:03.594Z,22.47
2023-02-18T14:57:09.944Z,22.24
2023-02-18T15:02:28.141Z,22.55
2023-02-18T15:07:30.338Z,22.53
2023-02-18T15:12:32.923Z,22.61
2023-02-18T15:17:35.304Z,22.72
2023-02-18T15:22:37.797Z,22.20
2023-02-18T15:27:44.865Z,22.46
2023-02-18T15:32:53.282Z,21.87
2023-02-18T15:37:58.544Z,21.23
2023-02-18T15:43:02.987Z,20.43
2023-02-18T15:48:06.398Z,20.29
2023-02-18T15:53:15.641Z,20.10
2023-02-18T15:58:24.252Z,19.61
2023-02-18T16:03:29.666Z,19.66
2023-02-18T16:08:31.978Z,19.27
2023-02-18T16:13:37.947Z,18.82
2023-02-18T16:18:42.358Z,18.32
2023-02-18T16:24:04.460Z,18.30
2023-02-18T16:29:16.321Z,18.40
2023-02-18T16:34:19.391Z,18.13
2023-02-18T16:39:22.739Z,18.13
2023-02-18T16:44:24.969Z,17.82
2023-02-18T16:49:29.093Z,17.17
2023-02-18T16:54:31.380Z,17.24
2023-02-18T16:59:33.988Z,17.15
2023-02-18T17:04:36.287Z,17.13
2023-02-18T17:09:38.655Z,16.70
2023-02-18T17:14:41.208Z,16.59
2023-02-18T17:19:43.721Z,16.61
2023-02-18T17:24:45.852Z,15.88
2023-02-18T17:29:48.088Z,16.44
2023-02-18T17:34:50.238Z,16.39
2023-02-18T17:39:53.005Z,16.11
2023-02-18T17:44:55.319Z,15.60
2023-02-18T17:49:57.413Z,15.72
2023-02-18T17:54:59.678Z,16.06
2023-02-18T18:00:02.154Z,15.45
2023-02-18T18:05:04.692Z,15.52
2023-02-18T18:10:07.544Z,15.27
2023-02-18T18:15:24.127Z,15.66
2023-02-18T18:20:28.468Z,14.77
2023-02-18T18:25:36.363Z,14.88
2023-02-18T18:30:42.093Z,14.87
2023-02-18T18:35:46.435Z,14.97
2023-02-18T18:40:49.369Z,15.02
2023-02-18T18:45:52.447Z,14.50
2023-02-18T18:50:55.345Z,14.57
2023-02-18T18:56:01.810Z,14.47
2023-02-18T19:01:05.795Z,14.54
2023-02-18T19:06:11.973Z,14.05
2023-02-18T19:11:15.210Z,13.97
2023-02-18T19:16:22.622Z,14.52
2023-02-18T19:21:24.962Z,13.94
2023-02-18T19:26:28.063Z,14.43
2023-02-18T19:31:30.421Z,14.06
2023-02-18T19:36:32.587Z,14.00
2023-02-18T19:41:34.794Z,14.01
2023-02-18T19:46:38.662Z,13.91
2023-02-18T19:51:40.930Z,14.06
2023-02-18T19:56:43.216Z,13.73
2023-02-18T20:01:45.421Z,13.16
2023-02-18T20:06:47.676Z,13.44
2023-02-18T20:11:50.246Z,13.51
2023-02-18T20:16:52.592Z,13.67
2023-02-18T20:21:58.724Z,13.43
2023-02-18T20:27:02.855Z,13.64
2023-02-18T20:32:06.508Z,13.72
2023-02-18T20:37:09.049Z,13.69
2023-02-18T20:42:16.734Z,13.57
2023-02-18T20:47:19.504Z,13.38
2023-02-18T20:52:22.100Z,12.02
2023-02-18T20:57:24.719Z,12.38
2023-02-18T21:02:27.553Z,12.46
2023-02-18T21:07:30.039Z,12.13
2023-02-18T21:12:32.512Z,12.36
2023-02-18T21:17:34.851Z,12.30
2023-02-18T21:22:37.334Z,12.55
2023-02-18T21:27:39.643Z,12.37
2023-02-18T21:32:41.922Z,12.46
2023-02-18T21:37:44.610Z,12.25
2023-02-18T21:42:46.944Z,12.39
2023-02-18T21:47:49.704Z,11.76
2023-02-18T21:52:52.194Z,11.89
2023-02-18T21:57:54.313Z,12.13
2023-02-18T22:02:56.504Z,12.15
2023-02-18T22:07:58.845Z,11.69
2023-02-18T22:13:01.118Z,11.77
2023-02-18T22:18:03.443Z,11.78
2023-02-18T22:23:05.701Z,11.61
2023-02-18T22:28:07.985Z,11.76
2023-02-18T22:33:10.136Z,11.81
2023-02-18T22:38:12.359Z,12.14
2023-02-18T22:43:14.598Z,12.06
2023-02-18T22:48:19.003Z,12.29
2023-02-18T22:53:22.234Z,12.19
2023-02-18T22:58:24.622Z,11.85
2023-02-18T23:03:28.327Z,12.02
2023-02-18T23:08:31.387Z,11.72
2023-02-18T23:13:34.173Z,11.71
2023-02-18T23:18:36.849Z,11.84
2023-02-18T23:23:39.356Z,12.02
2023-02-18T23:28:48.251Z,12.14
2023-02-18T23:33:55.059Z,12.02
2023-02-18T23:39:00.451Z,11.91
2023-02-18T23:44:07.376Z,11.58
2023-02-18T23:49:11.804Z,11.32
2023-02-18T23:54:14.019Z,11.52
2023-02-18T23:59:16.898Z,11.53
